sensor_id;sensor_type;location;lat;lon;timestamp;pressure;altitude;pressure_sealevel;temperature;humidity
10202;BME280;5143;42.584;23.164;2022-08-19T00:00:28;92479.75;;;16.71;100.00
10202;BME280;5143;42.584;23.164;2022-08-19T00:02:55;92470.50;;;16.68;100.00
10202;BME280;5143;42.584;23.164;2022-08-19T00:05:22;92470.50;;;16.68;100.00
10202;BME280;5143;42.584;23.164;2022-08-19T00:07:49;92477.75;;;16.71;100.00
10202;BME280;5143;42.584;23.164;2022-08-19T00:10:18;92476.03;;;16.68;100.00
10202;BME280;5143;42.584;23.164;2022-08-19T00:12:45;92478.78;;;16.68;100.00
10202;BME280;5143;42.584;23.164;2022-08-19T00:15:14;92474.78;;;16.69;100.00
10202;BME280;5143;42.584;23.164;2022-08-19T00:17:44;92486.63;;;16.64;100.00
10202;BME280;5143;42.584;23.164;2022-08-19T00:20:12;92491.47;;;16.58;100.00
10202;BME280;5143;42.584;23.164;2022-08-19T00:22:41;92491.25;;;16.56;100.00
10202;BME280;5143;42.584;23.164;2022-08-19T00:25:08;92497.50;;;16.57;100.00
10202;BME280;5143;42.584;23.164;2022-08-19T00:27:35;92501.28;;;16.53;100.00
10202;BME280;5143;42.584;23.164;2022-08-19T00:30:03;92497.81;;;16.53;100.00
10202;BME280;5143;42.584;23.164;2022-08-19T00:32:30;92485.94;;;16.39;100.00
10202;BME280;5143;42.584;23.164;2022-08-19T00:34:59;92490.09;;;16.46;100.00
10202;BME280;5143;42.584;23.164;2022-08-19T00:37:27;92492.84;;;16.46;100.00
10202;BME280;5143;42.584;23.164;2022-08-19T00:39:54;92492.41;;;16.42;100.00
10202;BME280;5143;42.584;23.164;2022-08-19T00:42:22;92489.81;;;16.31;100.00
10202;BME280;5143;42.584;23.164;2022-08-19T00:44:50;92482.81;;;16.30;100.00
10202;BME280;5143;42.584;23.164;2022-08-19T00:47:17;92473.34;;;16.25;100.00
10202;BME280;5143;42.584;23.164;2022-08-19T00:49:46;92460.34;;;16.26;100.00
10202;BME280;5143;42.584;23.164;2022-08-19T00:52:21;92474.53;;;16.30;100.00
10202;BME280;5143;42.584;23.164;2022-08-19T00:54:50;92472.00;;;16.32;100.00
10202;BME280;5143;42.584;23.164;2022-08-19T00:57:22;92465.97;;;16.33;100.00
10202;BME280;5143;42.584;23.164;2022-08-19T00:59:52;92468.75;;;16.33;100.00
10202;BME280;5143;42.584;23.164;2022-08-19T01:02:20;92466.06;;;16.28;100.00
10202;BME280;5143;42.584;23.164;2022-08-19T01:04:47;92465.59;;;16.24;100.00
10202;BME280;5143;42.584;23.164;2022-08-19T01:07:14;92470.88;;;16.22;100.00
10202;BME280;5143;42.584;23.164;2022-08-19T01:09:43;92472.69;;;16.19;100.00
10202;BME280;5143;42.584;23.164;2022-08-19T01:12:10;92473.66;;;16.22;100.00
10202;BME280;5143;42.584;23.164;2022-08-19T01:14:39;92469.25;;;16.13;100.00
10202;BME280;5143;42.584;23.164;2022-08-19T01:17:07;92468.56;;;16.07;100.00
10202;BME280;5143;42.584;23.164;2022-08-19T01:19:37;92465.75;;;16.13;100.00
10202;BME280;5143;42.584;23.164;2022-08-19T01:22:10;92471.25;;;16.13;100.00
10202;BME280;5143;42.584;23.164;2022-08-19T01:24:40;92460.56;;;16.09;100.00
10202;BME280;5143;42.584;23.164;2022-08-19T01:27:07;92467.31;;;16.08;100.00
10202;BME280;5143;42.584;23.164;2022-08-19T01:29:37;92466.56;;;16.08;100.00
10202;BME280;5143;42.584;23.164;2022-08-19T01:32:04;92458.69;;;15.99;100.00
10202;BME280;5143;42.584;23.164;2022-08-19T01:34:31;92462.97;;;15.94;100.00
10202;BME280;5143;42.584;23.164;2022-08-19T01:36:59;92460.22;;;15.94;100.00
10202;BME280;5143;42.584;23.164;2022-08-19T01:39:28;92455.06;;;15.85;100.00
10202;BME280;5143;42.584;23.164;2022-08-19T01:41:56;92454.56;;;15.86;100.00
10202;BME280;5143;42.584;23.164;2022-08-19T01:44:23;92455.31;;;15.87;100.00
10202;BME280;5143;42.584;23.164;2022-08-19T01:46:51;92461.25;;;15.91;100.00
10202;BME280;5143;42.584;23.164;2022-08-19T01:49:20;92477.16;;;15.79;100.00
10202;BME280;5143;42.584;23.164;2022-08-19T01:51:47;92480.00;;;15.74;100.00
10202;BME280;5143;42.584;23.164;2022-08-19T01:54:15;92482.44;;;15.77;100.00
10202;BME280;5143;42.584;23.164;2022-08-19T01:56:42;92485.94;;;15.78;100.00
10202;BME280;5143;42.584;23.164;2022-08-19T01:59:13;92481.41;;;15.80;100.00
10202;BME280;5143;42.584;23.164;2022-08-19T02:01:40;92484.16;;;15.80;100.00
10202;BME280;5143;42.584;23.164;2022-08-19T02:04:08;92480.16;;;15.81;100.00
10202;BME280;5143;42.584;23.164;2022-08-19T02:06:35;92486.97;;;15.75;100.00
10202;BME280;5143;42.584;23.164;2022-08-19T02:09:04;92480.44;;;15.78;100.00
10202;BME280;5143;42.584;23.164;2022-08-19T02:11:34;92468.00;;;15.71;100.00
10202;BME280;5143;42.584;23.164;2022-08-19T02:14:03;92469.78;;;15.69;100.00
10202;BME280;5143;42.584;23.164;2022-08-19T02:16:33;92467.78;;;15.69;100.00
10202;BME280;5143;42.584;23.164;2022-08-19T02:19:01;92465.03;;;15.69;100.00
10202;BME280;5143;42.584;23.164;2022-08-19T02:21:29;92460.63;;;15.61;100.00
10202;BME280;5143;42.584;23.164;2022-08-19T02:23:56;92466.59;;;15.65;100.00
10202;BME280;5143;42.584;23.164;2022-08-19T02:26:23;92462.56;;;15.66;100.00
10202;BME280;5143;42.584;23.164;2022-08-19T02:28:52;92463.31;;;15.66;100.00
10202;BME280;5143;42.584;23.164;2022-08-19T02:31:22;92467.09;;;15.63;100.00
10202;BME280;5143;42.584;23.164;2022-08-19T02:33:50;92459.41;;;15.56;100.00
10202;BME280;5143;42.584;23.164;2022-08-19T02:36:18;92462.50;;;15.47;100.00
10202;BME280;5143;42.584;23.164;2022-08-19T02:38:45;92448.84;;;15.36;100.00
10202;BME280;5143;42.584;23.164;2022-08-19T02:41:13;92456.00;;;15.45;100.00
10202;BME280;5143;42.584;23.164;2022-08-19T02:43:40;92453.78;;;15.43;100.00
10202;BME280;5143;42.584;23.164;2022-08-19T02:46:16;92461.28;;;15.43;100.00
10202;BME280;5143;42.584;23.164;2022-08-19T02:48:46;92468.56;;;15.40;100.00
10202;BME280;5143;42.584;23.164;2022-08-19T02:51:17;92460.66;;;15.31;100.00
10202;BME280;5143;42.584;23.164;2022-08-19T02:53:44;92470.91;;;15.30;100.00
10202;BME280;5143;42.584;23.164;2022-08-19T02:56:11;92467.97;;;15.23;100.00
10202;BME280;5143;42.584;23.164;2022-08-19T02:58:38;92466.72;;;15.24;100.00
10202;BME280;5143;42.584;23.164;2022-08-19T03:01:05;92460.00;;;15.19;100.00
10202;BME280;5143;42.584;23.164;2022-08-19T03:03:32;92462.47;;;15.23;100.00
10202;BME280;5143;42.584;23.164;2022-08-19T03:06:08;92461.69;;;15.28;100.00
10202;BME280;5143;42.584;23.164;2022-08-19T03:08:37;92464.44;;;15.28;100.00
10202;BME280;5143;42.584;23.164;2022-08-19T03:11:04;92470.47;;;15.26;100.00
10202;BME280;5143;42.584;23.164;2022-08-19T03:13:31;92454.56;;;15.14;100.00
10202;BME280;5143;42.584;23.164;2022-08-19T03:15:58;92465.00;;;15.21;100.00
10202;BME280;5143;42.584;23.164;2022-08-19T03:18:25;92463.28;;;15.18;100.00
10202;BME280;5143;42.584;23.164;2022-08-19T03:20:52;92469.72;;;15.26;100.00
10202;BME280;5143;42.584;23.164;2022-08-19T03:23:20;92477.25;;;15.20;100.00
10202;BME280;5143;42.584;23.164;2022-08-19T03:25:50;92478.75;;;15.21;100.00
10202;BME280;5143;42.584;23.164;2022-08-19T03:28:17;92476.06;;;15.15;100.00
10202;BME280;5143;42.584;23.164;2022-08-19T03:30:55;92470.19;;;15.00;100.00
10202;BME280;5143;42.584;23.164;2022-08-19T03:33:24;92475.88;;;15.08;100.00
10202;BME280;5143;42.584;23.164;2022-08-19T03:36:05;92474.88;;;15.05;100.00
10202;BME280;5143;42.584;23.164;2022-08-19T03:38:33;92482.63;;;15.07;100.00
10202;BME280;5143;42.584;23.164;2022-08-19T03:41:04;92482.84;;;15.09;100.00
10202;BME280;5143;42.584;23.164;2022-08-19T03:43:34;92482.41;;;15.05;100.00
10202;BME280;5143;42.584;23.164;2022-08-19T03:46:03;92491.09;;;15.09;100.00
10202;BME280;5143;42.584;23.164;2022-08-19T03:48:31;92495.50;;;14.93;100.00
10202;BME280;5143;42.584;23.164;2022-08-19T03:50:58;92497.22;;;14.96;100.00
10202;BME280;5143;42.584;23.164;2022-08-19T03:53:25;92495.72;;;14.95;100.00
10202;BME280;5143;42.584;23.164;2022-08-19T03:55:53;92492.91;;;15.01;100.00
10202;BME280;5143;42.584;23.164;2022-08-19T03:58:21;92499.81;;;15.13;100.00
10202;BME280;5143;42.584;23.164;2022-08-19T04:00:49;92502.97;;;15.22;100.00
10202;BME280;5143;42.584;23.164;2022-08-19T04:03:16;92508.16;;;15.31;100.00
10202;BME280;5143;42.584;23.164;2022-08-19T04:05:44;92507.06;;;15.40;100.00
10202;BME280;5143;42.584;23.164;2022-08-19T04:08:12;92506.25;;;15.51;100.00
10202;BME280;5143;42.584;23.164;2022-08-19T04:10:40;92510.44;;;15.57;100.00
10202;BME280;5143;42.584;23.164;2022-08-19T04:13:07;92507.63;;;15.63;100.00
10202;BME280;5143;42.584;23.164;2022-08-19T04:15:39;92500.81;;;15.69;100.00
10202;BME280;5143;42.584;23.164;2022-08-19T04:18:07;92518.09;;;15.88;100.00
10202;BME280;5143;42.584;23.164;2022-08-19T04:20:39;92523.03;;;15.96;100.00
10202;BME280;5143;42.584;23.164;2022-08-19T04:23:06;92510.84;;;16.10;100.00
10202;BME280;5143;42.584;23.164;2022-08-19T04:25:36;92525.16;;;16.27;100.00
10202;BME280;5143;42.584;23.164;2022-08-19T04:28:03;92521.22;;;16.41;100.00
10202;BME280;5143;42.584;23.164;2022-08-19T04:30:30;92524.31;;;16.56;100.00
10202;BME280;5143;42.584;23.164;2022-08-19T04:32:58;92518.41;;;16.65;100.00
10202;BME280;5143;42.584;23.164;2022-08-19T04:35:25;92523.41;;;16.85;100.00
10202;BME280;5143;42.584;23.164;2022-08-19T04:37:52;92514.22;;;16.96;100.00
10202;BME280;5143;42.584;23.164;2022-08-19T04:40:19;92526.47;;;17.14;100.00
10202;BME280;5143;42.584;23.164;2022-08-19T04:43:03;92523.97;;;17.29;100.00
10202;BME280;5143;42.584;23.164;2022-08-19T04:45:30;92526.59;;;17.21;100.00
10202;BME280;5143;42.584;23.164;2022-08-19T04:47:58;92528.97;;;17.30;100.00
10202;BME280;5143;42.584;23.164;2022-08-19T04:50:27;92528.25;;;17.43;100.00
10202;BME280;5143;42.584;23.164;2022-08-19T04:52:53;92517.47;;;17.58;100.00
10202;BME280;5143;42.584;23.164;2022-08-19T04:55:20;92532.91;;;18.45;100.00
10202;BME280;5143;42.584;23.164;2022-08-19T04:57:47;92535.19;;;19.76;100.00
10202;BME280;5143;42.584;23.164;2022-08-19T05:00:16;92549.38;;;20.93;100.00
10202;BME280;5143;42.584;23.164;2022-08-19T05:02:43;92548.31;;;21.93;100.00
10202;BME280;5143;42.584;23.164;2022-08-19T05:05:11;92554.19;;;23.05;97.61
10202;BME280;5143;42.584;23.164;2022-08-19T05:07:39;92564.28;;;24.22;86.60
10202;BME280;5143;42.584;23.164;2022-08-19T05:10:07;92559.91;;;25.21;78.09
10202;BME280;5143;42.584;23.164;2022-08-19T05:12:34;92568.22;;;25.83;71.11
10202;BME280;5143;42.584;23.164;2022-08-19T05:15:02;92564.00;;;26.83;67.18
10202;BME280;5143;42.584;23.164;2022-08-19T05:17:29;92559.44;;;27.35;64.90
10202;BME280;5143;42.584;23.164;2022-08-19T05:19:56;92559.69;;;27.59;63.92
10202;BME280;5143;42.584;23.164;2022-08-19T05:22:43;92568.97;;;28.51;61.74
10202;BME280;5143;42.584;23.164;2022-08-19T05:25:12;92571.69;;;29.55;55.96
10202;BME280;5143;42.584;23.164;2022-08-19T05:27:40;92575.28;;;30.58;53.33
10202;BME280;5143;42.584;23.164;2022-08-19T05:30:08;92580.34;;;31.31;50.58
10202;BME280;5143;42.584;23.164;2022-08-19T05:32:35;92584.84;;;31.98;46.57
10202;BME280;5143;42.584;23.164;2022-08-19T05:35:02;92572.88;;;32.11;43.92
10202;BME280;5143;42.584;23.164;2022-08-19T05:37:29;92582.91;;;32.15;43.21
10202;BME280;5143;42.584;23.164;2022-08-19T05:39:57;92588.59;;;32.67;43.76
10202;BME280;5143;42.584;23.164;2022-08-19T05:42:24;92586.16;;;33.30;42.36
10202;BME280;5143;42.584;23.164;2022-08-19T05:44:51;92591.00;;;33.27;39.20
10202;BME280;5143;42.584;23.164;2022-08-19T05:47:19;92592.78;;;33.77;37.16
10202;BME280;5143;42.584;23.164;2022-08-19T05:49:46;92588.28;;;34.01;36.63
10202;BME280;5143;42.584;23.164;2022-08-19T05:52:15;92586.06;;;34.13;37.16
10202;BME280;5143;42.584;23.164;2022-08-19T05:54:42;92593.91;;;34.15;35.76
10202;BME280;5143;42.584;23.164;2022-08-19T05:57:11;92583.31;;;33.57;36.87
10202;BME280;5143;42.584;23.164;2022-08-19T05:59:38;92585.66;;;33.76;37.32
10202;BME280;5143;42.584;23.164;2022-08-19T06:02:05;92587.44;;;33.99;36.61
10202;BME280;5143;42.584;23.164;2022-08-19T06:04:32;92588.94;;;34.76;35.77
10202;BME280;5143;42.584;23.164;2022-08-19T06:06:59;92586.09;;;34.76;34.84
10202;BME280;5143;42.584;23.164;2022-08-19T06:09:27;92586.03;;;34.74;33.75
10202;BME280;5143;42.584;23.164;2022-08-19T06:11:56;92591.22;;;34.95;33.80
10202;BME280;5143;42.584;23.164;2022-08-19T06:14:29;92601.94;;;35.12;34.26
10202;BME280;5143;42.584;23.164;2022-08-19T06:16:56;92598.53;;;35.16;34.26
10202;BME280;5143;42.584;23.164;2022-08-19T06:19:25;92595.88;;;35.53;33.47
10202;BME280;5143;42.584;23.164;2022-08-19T06:21:55;92600.94;;;35.39;33.44
10202;BME280;5143;42.584;23.164;2022-08-19T06:24:24;92595.03;;;35.50;33.39
10202;BME280;5143;42.584;23.164;2022-08-19T06:26:53;92593.91;;;35.73;33.04
10202;BME280;5143;42.584;23.164;2022-08-19T06:29:23;92597.97;;;36.21;33.17
10202;BME280;5143;42.584;23.164;2022-08-19T06:31:53;92595.34;;;36.45;31.73
10202;BME280;5143;42.584;23.164;2022-08-19T06:34:21;92596.72;;;36.61;32.29
10202;BME280;5143;42.584;23.164;2022-08-19T06:36:50;92598.13;;;36.07;32.29
10202;BME280;5143;42.584;23.164;2022-08-19T06:39:19;92599.63;;;36.46;32.67
10202;BME280;5143;42.584;23.164;2022-08-19T06:41:49;92596.63;;;36.97;32.33
10202;BME280;5143;42.584;23.164;2022-08-19T06:44:17;92591.63;;;36.78;32.19
10202;BME280;5143;42.584;23.164;2022-08-19T06:46:44;92594.25;;;34.07;34.50
10202;BME280;5143;42.584;23.164;2022-08-19T06:49:12;92590.28;;;35.55;33.23
10202;BME280;5143;42.584;23.164;2022-08-19T06:51:40;92595.25;;;36.60;32.56
10202;BME280;5143;42.584;23.164;2022-08-19T06:54:08;92604.97;;;36.93;29.90
10202;BME280;5143;42.584;23.164;2022-08-19T06:56:35;92600.72;;;36.01;31.57
10202;BME280;5143;42.584;23.164;2022-08-19T06:59:03;92599.94;;;35.66;32.72
10202;BME280;5143;42.584;23.164;2022-08-19T07:01:30;92605.38;;;36.28;31.70
10202;BME280;5143;42.584;23.164;2022-08-19T07:03:56;92610.50;;;37.26;29.73
10202;BME280;5143;42.584;23.164;2022-08-19T07:06:25;92613.25;;;37.63;29.41
10202;BME280;5143;42.584;23.164;2022-08-19T07:08:51;92613.56;;;37.52;28.84
10202;BME280;5143;42.584;23.164;2022-08-19T07:11:18;92613.84;;;37.40;29.04
10202;BME280;5143;42.584;23.164;2022-08-19T07:13:46;92616.09;;;37.63;27.55
10202;BME280;5143;42.584;23.164;2022-08-19T07:16:15;92615.50;;;37.67;29.22
10202;BME280;5143;42.584;23.164;2022-08-19T07:18:44;92611.38;;;37.92;29.08
10202;BME280;5143;42.584;23.164;2022-08-19T07:21:14;92620.59;;;38.12;28.01
10202;BME280;5143;42.584;23.164;2022-08-19T07:23:43;92613.03;;;37.38;29.51
10202;BME280;5143;42.584;23.164;2022-08-19T07:26:13;92615.94;;;38.01;27.47
10202;BME280;5143;42.584;23.164;2022-08-19T07:28:40;92607.09;;;37.71;28.16
10202;BME280;5143;42.584;23.164;2022-08-19T07:31:10;92606.22;;;37.66;29.34
10202;BME280;5143;42.584;23.164;2022-08-19T07:33:38;92601.41;;;38.14;29.59
10202;BME280;5143;42.584;23.164;2022-08-19T07:36:07;92613.38;;;38.54;27.93
10202;BME280;5143;42.584;23.164;2022-08-19T07:38:37;92602.69;;;37.88;28.08
10202;BME280;5143;42.584;23.164;2022-08-19T07:41:07;92609.94;;;38.58;27.50
10202;BME280;5143;42.584;23.164;2022-08-19T07:43:35;92599.31;;;37.93;28.04
10202;BME280;5143;42.584;23.164;2022-08-19T07:46:02;92611.63;;;38.21;26.08
10202;BME280;5143;42.584;23.164;2022-08-19T07:48:28;92606.38;;;37.70;26.12
10202;BME280;5143;42.584;23.164;2022-08-19T07:50:58;92605.38;;;37.42;28.89
10202;BME280;5143;42.584;23.164;2022-08-19T07:53:28;92607.16;;;37.73;27.91
10202;BME280;5143;42.584;23.164;2022-08-19T07:55:55;92609.47;;;37.37;28.20
10202;BME280;5143;42.584;23.164;2022-08-19T07:58:25;92607.00;;;37.08;28.27
10202;BME280;5143;42.584;23.164;2022-08-19T08:00:52;92607.88;;;37.52;29.19
10202;BME280;5143;42.584;23.164;2022-08-19T08:03:20;92603.13;;;36.62;28.51
10202;BME280;5143;42.584;23.164;2022-08-19T08:06:09;92596.75;;;36.26;30.47
10202;BME280;5143;42.584;23.164;2022-08-19T08:08:53;92600.50;;;36.13;29.84
10202;BME280;5143;42.584;23.164;2022-08-19T08:11:46;92602.66;;;35.97;30.33
10202;BME280;5143;42.584;23.164;2022-08-19T08:14:18;92591.53;;;35.34;30.72
10202;BME280;5143;42.584;23.164;2022-08-19T08:16:46;92586.56;;;34.86;31.47
10202;BME280;5143;42.584;23.164;2022-08-19T08:19:17;92591.13;;;34.30;32.38
10202;BME280;5143;42.584;23.164;2022-08-19T08:21:46;92583.78;;;34.25;33.58
10202;BME280;5143;42.584;23.164;2022-08-19T08:24:13;92583.84;;;34.12;34.09
10202;BME280;5143;42.584;23.164;2022-08-19T08:26:39;92580.34;;;33.98;33.24
10202;BME280;5143;42.584;23.164;2022-08-19T08:29:07;92584.41;;;33.22;33.91
10202;BME280;5143;42.584;23.164;2022-08-19T08:31:38;92577.88;;;33.34;35.53
10202;BME280;5143;42.584;23.164;2022-08-19T08:34:05;92577.00;;;33.15;34.17
10202;BME280;5143;42.584;23.164;2022-08-19T08:36:32;92574.34;;;33.19;35.09
10202;BME280;5143;42.584;23.164;2022-08-19T08:39:00;92568.28;;;32.84;34.63
10202;BME280;5143;42.584;23.164;2022-08-19T08:41:30;92577.50;;;32.85;36.92
10202;BME280;5143;42.584;23.164;2022-08-19T08:43:59;92561.25;;;32.58;34.52
10202;BME280;5143;42.584;23.164;2022-08-19T08:46:34;92567.28;;;32.39;36.05
10202;BME280;5143;42.584;23.164;2022-08-19T08:49:11;92572.38;;;32.29;36.40
10202;BME280;5143;42.584;23.164;2022-08-19T08:51:46;92563.41;;;31.68;36.06
10202;BME280;5143;42.584;23.164;2022-08-19T08:54:18;92558.13;;;31.88;36.04
10202;BME280;5143;42.584;23.164;2022-08-19T08:56:47;92554.03;;;32.02;36.41
10202;BME280;5143;42.584;23.164;2022-08-19T08:59:21;92557.66;;;31.66;36.15
10202;BME280;5143;42.584;23.164;2022-08-19T09:01:48;92549.50;;;31.72;38.48
10202;BME280;5143;42.584;23.164;2022-08-19T09:04:16;92544.31;;;31.55;37.42
10202;BME280;5143;42.584;23.164;2022-08-19T09:06:49;92543.19;;;31.60;38.58
10202;BME280;5143;42.584;23.164;2022-08-19T09:09:21;92550.34;;;32.00;37.46
10202;BME280;5143;42.584;23.164;2022-08-19T09:11:57;92552.56;;;32.01;35.22
10202;BME280;5143;42.584;23.164;2022-08-19T09:14:35;92555.16;;;31.97;36.52
10202;BME280;5143;42.584;23.164;2022-08-19T09:17:07;92549.22;;;32.05;36.66
10202;BME280;5143;42.584;23.164;2022-08-19T09:19:46;92544.53;;;32.09;36.54
10202;BME280;5143;42.584;23.164;2022-08-19T09:22:13;92538.88;;;32.09;35.25
10202;BME280;5143;42.584;23.164;2022-08-19T09:24:41;92541.31;;;32.42;35.17
10202;BME280;5143;42.584;23.164;2022-08-19T09:27:07;92538.91;;;32.50;35.50
10202;BME280;5143;42.584;23.164;2022-08-19T09:29:34;92537.09;;;32.68;35.73
10202;BME280;5143;42.584;23.164;2022-08-19T09:32:02;92530.47;;;32.78;35.45
10202;BME280;5143;42.584;23.164;2022-08-19T09:34:29;92532.34;;;33.00;34.70
10202;BME280;5143;42.584;23.164;2022-08-19T09:36:57;92534.75;;;33.06;33.56
10202;BME280;5143;42.584;23.164;2022-08-19T09:39:25;92530.78;;;32.84;32.94
10202;BME280;5143;42.584;23.164;2022-08-19T09:41:52;92533.59;;;32.97;33.26
10202;BME280;5143;42.584;23.164;2022-08-19T09:44:19;92533.41;;;32.66;32.24
10202;BME280;5143;42.584;23.164;2022-08-19T09:46:46;92527.53;;;32.89;34.25
10202;BME280;5143;42.584;23.164;2022-08-19T09:49:13;92529.41;;;32.98;33.11
10202;BME280;5143;42.584;23.164;2022-08-19T09:51:40;92526.25;;;33.19;32.84
10202;BME280;5143;42.584;23.164;2022-08-19T09:54:08;92530.75;;;32.97;32.70
10202;BME280;5143;42.584;23.164;2022-08-19T09:56:35;92521.53;;;32.97;34.52
10202;BME280;5143;42.584;23.164;2022-08-19T09:59:02;92518.84;;;32.99;32.00
10202;BME280;5143;42.584;23.164;2022-08-19T10:01:30;92516.28;;;33.05;33.36
10202;BME280;5143;42.584;23.164;2022-08-19T10:03:59;92511.69;;;33.11;31.78
10202;BME280;5143;42.584;23.164;2022-08-19T10:06:28;92506.81;;;32.85;31.64
10202;BME280;5143;42.584;23.164;2022-08-19T10:08:59;92495.72;;;32.61;31.19
10202;BME280;5143;42.584;23.164;2022-08-19T10:11:27;92500.00;;;32.76;32.05
10202;BME280;5143;42.584;23.164;2022-08-19T10:13:54;92500.16;;;32.94;32.07
10202;BME280;5143;42.584;23.164;2022-08-19T10:16:23;92507.63;;;33.01;31.91
10202;BME280;5143;42.584;23.164;2022-08-19T10:18:51;92497.34;;;33.07;30.76
10202;BME280;5143;42.584;23.164;2022-08-19T10:21:20;92501.75;;;32.97;26.43
10202;BME280;5143;42.584;23.164;2022-08-19T10:23:49;92504.06;;;32.87;27.43
10202;BME280;5143;42.584;23.164;2022-08-19T10:26:19;92500.28;;;32.96;28.38
10202;BME280;5143;42.584;23.164;2022-08-19T10:28:48;92493.09;;;32.79;27.73
10202;BME280;5143;42.584;23.164;2022-08-19T10:31:17;92496.00;;;33.08;28.28
10202;BME280;5143;42.584;23.164;2022-08-19T10:33:45;92490.81;;;33.05;29.92
10202;BME280;5143;42.584;23.164;2022-08-19T10:36:14;92490.13;;;33.04;30.28
10202;BME280;5143;42.584;23.164;2022-08-19T10:38:43;92480.09;;;32.88;30.52
10202;BME280;5143;42.584;23.164;2022-08-19T10:41:13;92488.75;;;32.92;28.70
10202;BME280;5143;42.584;23.164;2022-08-19T10:43:40;92481.41;;;33.14;29.56
10202;BME280;5143;42.584;23.164;2022-08-19T10:46:11;92489.81;;;32.98;29.60
10202;BME280;5143;42.584;23.164;2022-08-19T10:48:38;92495.38;;;32.96;29.50
10202;BME280;5143;42.584;23.164;2022-08-19T10:51:06;92485.81;;;33.03;28.95
10202;BME280;5143;42.584;23.164;2022-08-19T10:54:05;92485.28;;;33.20;28.96
10202;BME280;5143;42.584;23.164;2022-08-19T10:56:32;92498.19;;;32.96;27.56
10202;BME280;5143;42.584;23.164;2022-08-19T10:59:18;92478.34;;;32.67;28.97
10202;BME280;5143;42.584;23.164;2022-08-19T11:01:47;92493.50;;;32.87;28.93
10202;BME280;5143;42.584;23.164;2022-08-19T11:04:15;92495.47;;;32.98;29.60
10202;BME280;5143;42.584;23.164;2022-08-19T11:06:44;92481.94;;;32.97;30.14
10202;BME280;5143;42.584;23.164;2022-08-19T11:09:13;92487.06;;;33.00;30.03
10202;BME280;5143;42.584;23.164;2022-08-19T11:11:40;92480.09;;;32.88;28.64
10202;BME280;5143;42.584;23.164;2022-08-19T11:14:09;92481.03;;;32.92;29.15
10202;BME280;5143;42.584;23.164;2022-08-19T11:16:36;92483.63;;;32.88;28.14
10202;BME280;5143;42.584;23.164;2022-08-19T11:19:07;92473.13;;;33.18;29.65
10202;BME280;5143;42.584;23.164;2022-08-19T11:21:37;92471.06;;;32.91;28.36
10202;BME280;5143;42.584;23.164;2022-08-19T11:24:07;92478.94;;;32.93;30.97
10202;BME280;5143;42.584;23.164;2022-08-19T11:26:35;92476.19;;;32.95;29.07
10202;BME280;5143;42.584;23.164;2022-08-19T11:29:04;92473.63;;;32.72;27.87
10202;BME280;5143;42.584;23.164;2022-08-19T11:31:33;92469.84;;;32.67;29.55
10202;BME280;5143;42.584;23.164;2022-08-19T11:34:04;92461.06;;;32.61;29.55
10202;BME280;5143;42.584;23.164;2022-08-19T11:36:33;92470.81;;;32.72;29.58
10202;BME280;5143;42.584;23.164;2022-08-19T11:39:00;92463.25;;;32.76;30.13
10202;BME280;5143;42.584;23.164;2022-08-19T11:41:27;92461.13;;;32.90;30.05
10202;BME280;5143;42.584;23.164;2022-08-19T11:43:54;92460.13;;;33.13;30.87
10202;BME280;5143;42.584;23.164;2022-08-19T11:46:23;92458.25;;;33.17;29.34
10202;BME280;5143;42.584;23.164;2022-08-19T11:48:50;92450.84;;;32.97;29.12
10202;BME280;5143;42.584;23.164;2022-08-19T11:51:20;92452.94;;;33.10;30.67
10202;BME280;5143;42.584;23.164;2022-08-19T11:53:51;92452.97;;;32.83;30.00
10202;BME280;5143;42.584;23.164;2022-08-19T11:56:19;92455.34;;;33.02;29.54
10202;BME280;5143;42.584;23.164;2022-08-19T11:58:46;92444.44;;;33.10;28.84
10202;BME280;5143;42.584;23.164;2022-08-19T12:01:14;92442.69;;;32.89;28.65
10202;BME280;5143;42.584;23.164;2022-08-19T12:03:43;92438.59;;;32.92;30.09
10202;BME280;5143;42.584;23.164;2022-08-19T12:06:12;92442.25;;;32.95;29.67
10202;BME280;5143;42.584;23.164;2022-08-19T12:08:39;92430.94;;;33.08;29.47
10202;BME280;5143;42.584;23.164;2022-08-19T12:11:07;92438.97;;;33.14;30.94
10202;BME280;5143;42.584;23.164;2022-08-19T12:13:34;92431.88;;;32.99;30.74
10202;BME280;5143;42.584;23.164;2022-08-19T12:16:07;92422.06;;;32.87;29.78
10202;BME280;5143;42.584;23.164;2022-08-19T12:18:38;92416.94;;;32.83;29.33
10202;BME280;5143;42.584;23.164;2022-08-19T12:21:06;92413.59;;;32.87;29.61
10202;BME280;5143;42.584;23.164;2022-08-19T12:23:35;92414.38;;;33.03;30.35
10202;BME280;5143;42.584;23.164;2022-08-19T12:26:02;92410.06;;;33.15;30.38
10202;BME280;5143;42.584;23.164;2022-08-19T12:28:32;92409.22;;;33.13;29.26
10202;BME280;5143;42.584;23.164;2022-08-19T12:30:59;92401.28;;;33.09;30.92
10202;BME280;5143;42.584;23.164;2022-08-19T12:33:25;92399.59;;;33.04;30.37
10202;BME280;5143;42.584;23.164;2022-08-19T12:35:54;92407.94;;;33.16;29.75
10202;BME280;5143;42.584;23.164;2022-08-19T12:38:21;92398.88;;;33.04;29.10
10202;BME280;5143;42.584;23.164;2022-08-19T12:40:49;92404.78;;;33.23;31.29
10202;BME280;5143;42.584;23.164;2022-08-19T12:43:17;92395.56;;;33.23;29.66
10202;BME280;5143;42.584;23.164;2022-08-19T12:45:46;92394.84;;;33.38;30.23
10202;BME280;5143;42.584;23.164;2022-08-19T12:48:13;92386.81;;;33.33;29.23
10202;BME280;5143;42.584;23.164;2022-08-19T12:50:41;92383.06;;;33.28;29.19
10202;BME280;5143;42.584;23.164;2022-08-19T12:53:07;92391.47;;;33.26;30.08
10202;BME280;5143;42.584;23.164;2022-08-19T12:55:34;92383.22;;;32.87;29.38
10202;BME280;5143;42.584;23.164;2022-08-19T12:58:01;92385.34;;;33.02;30.26
10202;BME280;5143;42.584;23.164;2022-08-19T13:00:28;92377.09;;;33.06;30.51
10202;BME280;5143;42.584;23.164;2022-08-19T13:02:59;92372.72;;;33.19;30.81